Time;durP1;ratioP1;P1;durP2;ratioP2;P2;SDS_P1;SDS_P2;PMS_P1;PMS_P2;Temp;Humidity;BMP_temperature;BMP_pressure;BME280_temperature;BME280_humidity;BME280_pressure;Samples;Min_cycle;Max_cycle;Signal;HPM_P1;HPM_P2
2021/11/02 00:02:16;;;;;;;1.52;0.70;;;;;;;17.04;44.92;99719.59;5016715;28;20088;-59
2021/11/02 00:04:42;;;;;;;1.27;0.60;;;;;;;17.04;45.20;99719.59;5016230;28;20026;-59
2021/11/02 00:07:07;;;;;;;1.85;0.73;;;;;;;17.02;44.75;99718.97;5011782;28;20064;-58
2021/11/02 00:09:38;;;;;;;4.00;1.08;;;;;;;16.98;44.12;99726.63;5012973;28;20018;-58
2021/11/02 00:12:05;;;;;;;3.40;0.68;;;;;;;16.97;44.67;99721.44;5016462;28;20116;-58
2021/11/02 00:14:30;;;;;;;2.92;0.50;;;;;;;16.98;44.33;99731.19;5016797;28;20056;-59
2021/11/02 00:17:11;;;;;;;3.95;0.73;;;;;;;16.96;44.52;99733.28;5008947;28;20018;-59
2021/11/02 00:19:40;;;;;;;1.13;0.47;;;;;;;16.94;44.88;99729.94;5009212;28;20080;-59
2021/11/02 00:22:14;;;;;;;3.08;0.60;;;;;;;16.93;44.21;99728.25;5016536;28;20045;-59
2021/11/02 00:24:55;;;;;;;1.20;0.65;;;;;;;16.92;44.62;99723.91;5014477;28;20525;-59
2021/11/02 00:27:21;;;;;;;6.35;0.98;;;;;;;16.89;45.28;99727.81;5015524;28;20505;-59
2021/11/02 00:29:47;;;;;;;2.65;0.98;;;;;;;16.89;45.56;99727.81;5016198;28;20449;-59
2021/11/02 00:32:13;;;;;;;1.42;0.60;;;;;;;16.86;44.30;99725.53;5006739;28;20030;-58
2021/11/02 00:34:38;;;;;;;4.07;0.98;;;;;;;16.86;45.00;99725.53;5018683;28;20081;-58
2021/11/02 00:37:03;;;;;;;4.22;1.33;;;;;;;16.85;45.34;99721.97;5020202;28;20029;-59
2021/11/02 00:39:29;;;;;;;7.30;1.23;;;;;;;16.86;43.89;99725.53;5020086;28;20014;-59
2021/11/02 00:41:54;;;;;;;2.15;0.52;;;;;;;16.84;45.40;99717.59;5025233;28;20116;-59
2021/11/02 00:44:22;;;;;;;1.23;0.68;;;;;;;16.84;44.15;99717.59;5023392;28;20430;-59
2021/11/02 00:46:47;;;;;;;1.02;0.63;;;;;;;16.81;44.31;99717.97;5026144;28;20049;-58
2021/11/02 00:49:17;;;;;;;3.58;0.90;;;;;;;16.76;45.10;99712.34;5023675;28;20014;-59
2021/11/02 00:51:44;;;;;;;2.22;0.90;;;;;;;16.74;45.28;99718.97;5018449;28;20022;-59
2021/11/02 00:54:09;;;;;;;1.83;0.80;;;;;;;16.73;45.72;99720.84;5025023;28;20382;-59
2021/11/02 00:56:36;;;;;;;1.75;0.60;;;;;;;16.69;45.28;99719.56;5023913;28;20022;-59
2021/11/02 00:59:01;;;;;;;5.30;0.40;;;;;;;16.70;45.26;99723.09;5025936;28;20016;-59
2021/11/02 01:01:26;;;;;;;2.00;0.80;;;;;;;16.67;44.78;99707.25;5023063;28;20113;-58
2021/11/02 01:03:52;;;;;;;1.75;1.02;;;;;;;16.66;44.56;99717.25;5004943;28;20021;-58
2021/11/02 01:06:17;;;;;;;3.10;0.77;;;;;;;16.68;44.73;99720.59;5021523;28;20026;-59
2021/11/02 01:08:42;;;;;;;1.67;0.60;;;;;;;16.65;44.68;99712.88;5021721;28;20068;-59
2021/11/02 01:11:08;;;;;;;1.80;0.80;;;;;;;16.66;44.69;99714.56;5006614;28;20021;-59
2021/11/02 01:13:33;;;;;;;4.03;0.63;;;;;;;16.67;45.80;99710.78;5020215;28;20379;-58
2021/11/02 01:15:59;;;;;;;1.98;0.70;;;;;;;16.67;44.50;99713.50;5017138;28;20032;-59
2021/11/02 01:18:24;;;;;;;3.58;0.60;;;;;;;16.64;44.87;99707.63;5023636;28;20092;-58
2021/11/02 01:20:50;;;;;;;6.80;0.85;;;;;;;16.63;45.11;99717.66;5027473;28;20063;-59
2021/11/02 01:23:15;;;;;;;3.35;0.95;;;;;;;16.63;44.75;99719.50;5015112;28;20036;-59
2021/11/02 01:25:41;;;;;;;4.57;0.43;;;;;;;16.63;44.66;99722.22;5025480;28;20018;-59
2021/11/02 01:28:06;;;;;;;5.47;0.77;;;;;;;16.58;44.58;99711.97;5009679;28;20030;-59
2021/11/02 01:30:32;;;;;;;3.75;0.45;;;;;;;16.56;45.37;99711.31;5029751;28;20083;-59
2021/11/02 01:32:57;;;;;;;4.43;1.20;;;;;;;16.55;44.83;99715.09;5003551;28;20017;-59
2021/11/02 01:35:23;;;;;;;2.45;0.75;;;;;;;16.55;44.69;99709.69;5017076;28;20471;-59
2021/11/02 01:37:48;;;;;;;1.58;0.55;;;;;;;16.54;44.50;99718.81;5006879;28;20459;-59
2021/11/02 01:40:16;;;;;;;3.67;0.60;;;;;;;16.51;44.40;99713.75;5015123;28;20056;-58
2021/11/02 01:42:42;;;;;;;1.92;0.65;;;;;;;16.50;44.33;99706.66;5015103;28;20025;-59
2021/11/02 01:45:10;;;;;;;0.65;0.52;;;;;;;16.50;44.70;99706.66;5011277;28;20108;-59
2021/11/02 01:47:47;;;;;;;0.32;0.30;;;;;;;16.49;44.79;99710.41;5011396;28;20037;-58
2021/11/02 01:50:14;;;;;;;2.08;0.38;;;;;;;16.49;44.31;99713.13;5012568;28;20030;-59
2021/11/02 01:52:40;;;;;;;2.33;0.50;;;;;;;16.49;44.44;99714.97;5014083;28;20040;-58
2021/11/02 01:55:08;;;;;;;3.50;0.82;;;;;;;16.47;45.90;99709.75;5004897;28;20746;-60
2021/11/02 01:57:34;;;;;;;0.50;0.50;;;;;;;16.46;45.94;99716.22;5002303;28;20034;-58
2021/11/02 02:00:00;;;;;;;0.60;0.50;;;;;;;16.45;45.43;99721.78;4997139;28;20573;-59
2021/11/02 02:02:33;;;;;;;2.63;0.82;;;;;;;16.46;44.83;99723.47;4996912;28;20053;-58
2021/11/02 02:05:01;;;;;;;;;;;;;;;16.46;44.24;99724.31;5001318;28;20037;-59
2021/11/02 02:07:34;;;;;;;2.80;0.57;;;;;;;16.43;44.94;99713.88;5014055;28;19913;-59
2021/11/02 02:10:08;;;;;;;0.80;0.50;;;;;;;16.42;46.01;99725.72;5005093;28;20381;-59
2021/11/02 02:12:53;;;;;;;4.05;1.17;;;;;;;16.40;45.58;99716.97;5014617;28;20474;-58
2021/11/02 02:15:27;;;;;;;3.03;0.60;;;;;;;16.38;45.43;99719.03;5005493;28;20025;-59
2021/11/02 02:18:21;;;;;;;1.50;0.68;;;;;;;16.38;44.37;99719.03;5011629;28;20036;-59
2021/11/02 02:21:05;;;;;;;0.40;0.40;;;;;;;16.39;45.47;99719.88;5002686;28;20429;-58
2021/11/02 02:23:51;;;;;;;1.17;0.60;;;;;;;16.37;45.75;99711.97;5014310;28;20026;-58
2021/11/02 02:26:27;;;;;;;2.85;0.50;;;;;;;16.37;45.77;99706.56;5014081;28;20040;-58
2021/11/02 02:28:57;;;;;;;1.02;0.57;;;;;;;16.39;45.01;99709.06;5003510;28;20038;-60
2021/11/02 02:31:23;;;;;;;1.98;0.50;;;;;;;16.37;45.13;99714.66;5014010;28;20018;-58
2021/11/02 02:33:49;;;;;;;0.63;0.43;;;;;;;16.36;45.15;99715.69;5010242;28;21420;-59
2021/11/02 02:36:16;;;;;;;0.90;0.32;;;;;;;16.36;45.04;99720.28;4996941;28;20038;-58
2021/11/02 02:38:44;;;;;;;0.80;0.50;;;;;;;16.37;45.24;99713.81;4998268;28;20014;-59
2021/11/02 02:41:10;;;;;;;1.23;0.55;;;;;;;16.37;45.06;99714.66;5002581;28;20034;-59
2021/11/02 02:43:37;;;;;;;1.27;0.55;;;;;;;16.38;45.94;99712.81;5001517;28;20048;-58
2021/11/02 02:46:04;;;;;;;2.60;0.60;;;;;;;16.38;44.96;99705.53;5006875;28;20494;-58
2021/11/02 02:48:30;;;;;;;2.75;0.60;;;;;;;16.38;46.14;99700.13;4986031;28;20029;-59
2021/11/02 02:50:57;;;;;;;2.42;0.73;;;;;;;16.36;44.74;99695.94;4997573;28;20497;-59
2021/11/02 02:53:24;;;;;;;0.65;0.57;;;;;;;16.32;45.48;99698.19;5003590;28;20100;-59
2021/11/02 02:55:49;;;;;;;1.27;0.60;;;;;;;16.31;45.89;99691.09;5001977;28;20475;-59
2021/11/02 02:58:15;;;;;;;0.77;0.60;;;;;;;16.29;45.04;99693.19;5011756;28;20025;-58
2021/11/02 03:00:42;;;;;;;1.27;0.70;;;;;;;16.29;44.72;99682.38;5013874;28;20018;-59
2021/11/02 03:03:09;;;;;;;1.35;0.70;;;;;;;16.29;45.83;99687.78;5013382;28;20045;-59
2021/11/02 03:05:35;;;;;;;1.95;0.73;;;;;;;16.26;44.91;99690.84;5013401;28;20112;-58
2021/11/02 03:08:03;;;;;;;2.67;0.73;;;;;;;16.26;45.79;99688.16;5013491;28;20088;-59
2021/11/02 03:10:28;;;;;;;4.03;0.75;;;;;;;16.26;45.80;99682.75;4997864;28;20053;-59
2021/11/02 03:12:55;;;;;;;2.72;0.60;;;;;;;16.24;45.69;99682.13;5009673;28;20065;-58
2021/11/02 03:43:41;;;;;;;0.60;0.60;;;;;;;15.95;45.79;99690.31;4898958;29;20107;-60
2021/11/02 03:49:00;;;;;;;0.65;0.45;;;;;;;15.99;45.02;99694.34;4904982;29;20073;-58
2021/11/02 03:51:48;;;;;;;1.85;0.55;;;;;;;15.98;44.78;99689.94;4907799;28;20071;-58
2021/11/02 04:27:13;;;;;;;2.10;0.30;;;;;;;15.87;44.74;99687.75;5012400;28;20490;-58
2021/11/02 04:42:45;;;;;;;2.58;0.45;;;;;;;15.86;45.12;99683.38;5003447;28;20033;-59
2021/11/02 05:10:46;;;;;;;3.47;0.38;;;;;;;15.85;46.08;99687.94;5004645;28;20116;-59
2021/11/02 05:56:37;;;;;;;1.55;0.55;;;;;;;15.95;45.53;99674.13;5013732;28;20054;-59
2021/11/02 06:04:16;;;;;;;2.13;0.47;;;;;;;15.89;45.19;99661.38;5014551;28;20092;-59
2021/11/02 06:07:21;;;;;;;2.30;0.47;;;;;;;15.99;45.74;99683.53;5003810;28;20024;-58
2021/11/02 06:28:57;;;;;;;1.10;0.52;;;;;;;15.82;45.38;99674.00;5013827;28;20641;-58
2021/11/02 06:31:30;;;;;;;0.77;0.43;;;;;;;15.83;46.00;99676.47;5012128;28;20024;-59
2021/11/02 06:50:43;;;;;;;2.35;0.70;;;;;;;15.78;45.95;99691.59;4907701;28;20518;-58
2021/11/02 06:56:37;;;;;;;1.33;1.00;;;;;;;15.83;45.42;99697.28;5008649;28;20088;-59
2021/11/02 07:16:16;;;;;;;1.58;0.65;;;;;;;16.08;44.93;99701.28;5019416;28;20037;-59
2021/11/02 07:18:37;;;;;;;1.40;0.68;;;;;;;16.11;45.93;99703.56;5006823;28;20033;-59
2021/11/02 07:21:09;;;;;;;0.68;0.68;;;;;;;16.20;46.22;99715.94;4997839;28;20383;-59
2021/11/02 07:23:51;;;;;;;0.88;0.38;;;;;;;16.26;45.24;99715.19;5022136;28;20025;-59
2021/11/02 08:47:03;;;;;;;2.17;0.85;;;;;;;17.72;44.69;99706.06;5015931;28;20095;-59
2021/11/02 08:49:30;;;;;;;2.45;0.90;;;;;;;17.76;44.67;99699.19;5013665;28;20022;-59
2021/11/02 08:51:56;;;;;;;1.63;0.50;;;;;;;17.89;44.77;99707.38;5015954;28;20116;-59
2021/11/02 08:54:23;;;;;;;3.38;0.90;;;;;;;18.01;44.97;99708.44;5015950;28;20018;-59
2021/11/02 08:56:48;;;;;;;5.03;0.80;;;;;;;18.13;44.33;99705.13;5015953;28;20122;-59
2021/11/02 08:59:14;;;;;;;0.90;0.70;;;;;;;18.23;44.64;99700.16;5015848;28;20092;-59
2021/11/02 09:01:40;;;;;;;1.73;0.80;;;;;;;18.34;44.53;99708.50;5015931;28;20028;-59
2021/11/02 09:04:07;;;;;;;1.90;0.80;;;;;;;18.35;44.29;99707.47;5016187;28;20436;-59
2021/11/02 09:06:34;;;;;;;0.85;0.68;;;;;;;18.33;44.57;99708.72;5013927;28;20022;-59
2021/11/02 09:09:04;;;;;;;2.90;0.63;;;;;;;18.34;44.40;99702.25;5014195;28;20040;-59
2021/11/02 09:11:30;;;;;;;0.80;0.70;;;;;;;18.40;44.11;99701.41;4984816;28;20537;-59
2021/11/02 09:13:56;;;;;;;2.90;0.68;;;;;;;18.50;44.44;99704.59;5006361;28;20026;-59
2021/11/02 09:16:26;;;;;;;2.63;0.57;;;;;;;18.53;43.98;99706.91;5014205;28;20101;-59
2021/11/02 09:18:53;;;;;;;1.52;0.60;;;;;;;18.56;43.75;99714.63;5012865;28;20121;-59
2021/11/02 09:21:21;;;;;;;4.13;1.00;;;;;;;18.60;44.68;99713.97;5014272;28;20018;-59
2021/11/02 09:23:48;;;;;;;2.83;1.17;;;;;;;18.60;43.78;99697.72;5016135;28;20028;-59
2021/11/02 09:26:19;;;;;;;0.82;0.52;;;;;;;18.62;44.61;99708.34;5016151;28;20028;-59
2021/11/02 09:28:46;;;;;;;1.85;0.90;;;;;;;18.58;44.36;99704.38;5015461;28;20458;-59
2021/11/02 09:31:13;;;;;;;1.48;0.70;;;;;;;18.73;44.15;99710.44;5015273;28;20160;-59
2021/11/02 09:33:38;;;;;;;1.25;0.65;;;;;;;18.88;44.27;99711.06;5015766;28;20060;-59
2021/11/02 09:36:06;;;;;;;2.92;0.90;;;;;;;18.88;43.54;99711.06;5015807;28;20050;-59
2021/11/02 09:38:40;;;;;;;1.52;0.73;;;;;;;18.97;43.42;99701.66;5015641;28;20100;-59
2021/11/02 09:41:31;;;;;;;1.30;0.50;;;;;;;19.50;42.87;99710.53;5014319;28;20025;-59
2021/11/02 09:44:36;;;;;;;1.27;0.60;;;;;;;19.49;43.28;99708.03;5001013;28;20033;-59
2021/11/02 09:47:27;;;;;;;1.98;0.88;;;;;;;19.40;43.82;99704.69;5015880;28;20025;-59
2021/11/02 09:50:12;;;;;;;3.00;0.80;;;;;;;19.37;43.51;99710.56;5012611;28;20530;-59
2021/11/02 09:52:59;;;;;;;4.03;0.82;;;;;;;19.38;43.62;99706.81;5014777;28;20036;-59
2021/11/02 09:55:56;;;;;;;1.40;0.70;;;;;;;19.32;43.69;99717.69;4998516;28;20026;-59
2021/11/02 09:58:28;;;;;;;1.35;0.50;;;;;;;19.28;43.81;99709.09;5012245;28;20025;-59
2021/11/02 10:01:06;;;;;;;0.60;0.60;;;;;;;19.19;43.31;99708.50;5015706;28;20022;-59
2021/11/02 10:04:22;;;;;;;1.25;0.70;;;;;;;19.21;43.81;99710.19;5013527;28;20026;-59
2021/11/02 10:07:18;;;;;;;4.93;0.47;;;;;;;19.17;43.57;99712.47;4943598;29;20090;-59
2021/11/02 10:10:13;;;;;;;2.90;0.57;;;;;;;19.21;43.84;99710.19;4923911;29;20048;-60
2021/11/02 10:13:02;;;;;;;1.83;0.80;;;;;;;19.23;43.69;99710.78;5005723;28;20478;-59
2021/11/02 10:15:51;;;;;;;0.60;0.45;;;;;;;19.20;43.45;99712.06;5014995;28;20470;-59
2021/11/02 10:18:35;;;;;;;6.03;0.47;;;;;;;19.11;43.58;99705.19;5002209;28;20049;-59
2021/11/02 10:21:38;;;;;;;0.60;0.60;;;;;;;19.01;43.95;99711.03;5013111;28;20025;-59
2021/11/02 10:24:12;;;;;;;0.77;0.40;;;;;;;18.96;44.02;99712.69;5003738;28;20490;-59
2021/11/02 10:26:53;;;;;;;3.30;0.70;;;;;;;19.02;43.76;99711.88;5013525;28;20026;-59
2021/11/02 10:29:24;;;;;;;0.50;0.50;;;;;;;19.07;43.54;99704.75;5014719;28;20072;-59
2021/11/02 10:32:06;;;;;;;2.20;0.60;;;;;;;19.13;43.28;99714.78;5013233;28;20053;-59
2021/11/02 10:34:35;;;;;;;1.65;0.50;;;;;;;19.25;43.13;99703.25;5019336;28;20483;-59
2021/11/02 10:37:14;;;;;;;1.27;0.30;;;;;;;19.35;43.43;99706.34;5019542;28;20025;-59
2021/11/02 10:40:03;;;;;;;1.80;0.60;;;;;;;19.36;43.55;99708.88;5011366;28;20022;-59
2021/11/02 10:43:04;;;;;;;0.43;0.30;;;;;;;19.42;43.87;99705.34;5011524;28;20026;-60
2021/11/02 10:45:31;;;;;;;0.22;0.20;;;;;;;19.49;43.23;99705.31;5004350;28;20036;-59
2021/11/02 10:48:06;;;;;;;1.08;0.50;;;;;;;19.56;42.65;99704.25;5024834;28;20029;-59
2021/11/02 10:50:37;;;;;;;0.70;0.38;;;;;;;19.58;43.18;99685.84;5005863;28;20498;-59
2021/11/02 10:53:07;;;;;;;1.70;0.75;;;;;;;19.69;43.47;99690.59;5002638;28;20032;-59
2021/11/02 10:55:55;;;;;;;1.08;0.40;;;;;;;19.74;42.98;99693.50;5029998;28;20359;-59
2021/11/02 10:58:59;;;;;;;0.68;0.40;;;;;;;19.76;42.99;99694.13;5001448;28;20025;-59
2021/11/02 11:01:29;;;;;;;4.18;0.73;;;;;;;19.76;43.11;99683.25;5023658;28;20021;-59
2021/11/02 11:03:56;;;;;;;0.20;0.20;;;;;;;19.86;43.29;99688.22;5007874;28;20075;-59
2021/11/02 11:06:24;;;;;;;0.68;0.47;;;;;;;19.97;42.93;99683.97;5001106;28;20429;-59
2021/11/02 11:08:50;;;;;;;3.35;0.43;;;;;;;19.93;42.74;99689.03;5002497;28;20029;-59
2021/11/02 11:11:18;;;;;;;0.85;0.52;;;;;;;19.89;42.90;99682.34;5001207;28;20067;-59
2021/11/02 11:13:45;;;;;;;1.52;0.35;;;;;;;19.82;42.72;99681.53;5017013;28;20072;-59
2021/11/02 11:16:19;;;;;;;0.55;0.20;;;;;;;19.76;42.15;99687.88;4986135;28;20088;-59
2021/11/02 11:18:56;;;;;;;2.00;0.40;;;;;;;19.85;43.06;99683.03;5024413;28;20493;-59
2021/11/02 11:21:26;;;;;;;0.30;0.30;;;;;;;20.11;42.43;99680.97;5013969;28;20025;-59
2021/11/02 11:24:09;;;;;;;1.27;0.50;;;;;;;21.22;41.13;99668.34;5017738;28;20359;-59
2021/11/02 11:26:34;;;;;;;1.50;0.88;;;;;;;21.39;40.63;99674.84;5001638;28;20036;-59
2021/11/02 11:29:03;;;;;;;0.50;0.20;;;;;;;21.44;41.27;99666.81;5018892;28;20030;-59
2021/11/02 11:31:29;;;;;;;3.97;0.60;;;;;;;21.26;40.84;99668.72;5014692;28;20262;-59
2021/11/02 11:34:00;;;;;;;0.90;0.40;;;;;;;21.12;41.64;99662.59;5025423;28;20025;-60
2021/11/02 11:36:28;;;;;;;0.47;0.43;;;;;;;21.29;41.28;99662.81;5010934;28;20124;-59
2021/11/02 11:38:59;;;;;;;3.10;0.60;;;;;;;21.18;40.94;99653.53;5012837;28;20026;-59
2021/11/02 11:41:27;;;;;;;0.95;0.65;;;;;;;21.28;41.54;99661.97;5013723;28;20025;-59
2021/11/02 11:43:54;;;;;;;0.30;0.30;;;;;;;21.33;41.28;99662.13;5015343;28;20021;-61
2021/11/02 11:46:19;;;;;;;1.27;0.40;;;;;;;21.18;40.58;99664.41;5016653;28;20025;-60
2021/11/02 11:48:53;;;;;;;2.92;0.43;;;;;;;20.94;41.44;99665.25;5017132;28;20026;-59
2021/11/02 11:51:25;;;;;;;0.40;0.32;;;;;;;20.71;40.87;99659.63;5017727;28;20081;-59
2021/11/02 11:54:02;;;;;;;0.55;0.30;;;;;;;20.61;40.84;99662.00;5017561;28;20046;-59
2021/11/02 11:56:33;;;;;;;2.83;0.40;;;;;;;20.56;41.56;99661.84;5004573;28;20487;-59
2021/11/02 11:58:59;;;;;;;0.65;0.35;;;;;;;20.51;41.72;99657.06;5016936;28;20068;-59
2021/11/02 12:01:54;;;;;;;2.65;0.20;;;;;;;20.43;41.94;99661.97;5017503;28;20029;-59
2021/11/02 12:04:25;;;;;;;0.20;0.20;;;;;;;20.31;41.37;99654.50;5015697;28;20486;-59
2021/11/02 12:07:10;;;;;;;1.23;0.30;;;;;;;20.20;41.85;99657.91;5017548;28;20014;-59
2021/11/02 12:09:41;;;;;;;1.50;0.43;;;;;;;20.07;41.49;99660.69;5017476;28;20022;-59
2021/11/02 12:12:08;;;;;;;0.88;0.30;;;;;;;19.95;41.78;99654.31;5015859;28;20060;-59
2021/11/02 12:14:33;;;;;;;1.65;0.20;;;;;;;19.85;41.86;99642.25;5015671;28;20071;-59
2021/11/02 12:17:02;;;;;;;0.45;0.38;;;;;;;19.91;42.20;99661.22;5014725;28;20092;-59
2021/11/02 12:19:30;;;;;;;3.47;0.30;;;;;;;19.97;42.35;99651.34;5016902;28;20014;-59
2021/11/02 12:21:58;;;;;;;0.40;0.40;;;;;;;20.03;41.79;99656.75;5016986;28;20483;-59
2021/11/02 12:24:29;;;;;;;0.52;0.30;;;;;;;20.10;41.59;99651.28;5016574;28;20025;-59
2021/11/02 12:26:55;;;;;;;1.88;1.23;;;;;;;20.17;41.85;99647.47;5016669;28;20033;-59
2021/11/02 12:29:27;;;;;;;8.52;2.58;;;;;;;20.23;41.95;99637.59;5016773;28;20032;-59
2021/11/02 12:32:04;;;;;;;2.00;1.00;;;;;;;20.24;42.18;99642.84;5015419;28;20022;-60
2021/11/02 12:34:41;;;;;;;2.35;1.00;;;;;;;20.28;41.61;99632.34;5016601;28;20080;-59
2021/11/02 12:37:09;;;;;;;0.60;0.43;;;;;;;20.31;42.06;99635.47;5015146;28;20036;-59
2021/11/02 12:39:35;;;;;;;0.93;0.43;;;;;;;20.35;41.83;99644.03;5005503;28;20483;-59
2021/11/02 12:42:02;;;;;;;2.50;0.47;;;;;;;20.42;41.82;99643.97;5001877;28;20045;-59
2021/11/02 12:44:36;;;;;;;1.77;0.50;;;;;;;20.45;41.15;99635.34;5014258;28;20076;-59
2021/11/02 12:47:03;;;;;;;2.08;0.47;;;;;;;20.41;41.26;99637.69;5016575;28;20489;-59
2021/11/02 12:49:34;;;;;;;0.93;0.40;;;;;;;20.34;42.04;99653.22;5016232;28;20029;-59
2021/11/02 12:52:04;;;;;;;1.00;0.30;;;;;;;20.23;41.63;99646.59;5016425;28;20029;-59
2021/11/02 12:54:30;;;;;;;0.85;0.43;;;;;;;20.17;42.04;99647.47;5014791;28;20039;-60
2021/11/02 12:57:12;;;;;;;0.70;0.30;;;;;;;20.00;41.95;99657.19;4998673;28;20121;-59
2021/11/02 12:59:46;;;;;;;0.98;0.32;;;;;;;19.85;42.44;99670.25;5014432;28;20471;-59
2021/11/02 13:02:17;;;;;;;0.20;0.20;;;;;;;19.61;42.40;99669.13;5015874;28;20123;-59
2021/11/02 13:04:45;;;;;;;0.30;0.10;;;;;;;19.48;42.94;99674.63;5015916;28;20029;-59
2021/11/02 13:07:12;;;;;;;0.22;0.20;;;;;;;19.31;42.94;99669.84;5015758;28;20022;-60
2021/11/02 13:09:38;;;;;;;0.30;0.17;;;;;;;19.13;43.54;99665.91;5016016;28;20032;-60
2021/11/02 13:12:09;;;;;;;0.50;0.10;;;;;;;19.02;43.37;99665.72;5016258;28;20049;-60
2021/11/02 13:14:39;;;;;;;0.65;0.13;;;;;;;18.78;43.61;99659.09;5014229;28;20455;-60
2021/11/02 13:17:07;;;;;;;0.93;0.20;;;;;;;18.69;43.23;99663.06;5002337;28;20017;-59
2021/11/02 13:19:34;;;;;;;0.52;0.20;;;;;;;18.62;44.04;99662.22;5015265;28;20022;-59
2021/11/02 13:22:11;;;;;;;0.20;0.20;;;;;;;18.56;44.29;99657.66;4997109;28;20453;-59
2021/11/02 13:24:36;;;;;;;0.40;0.35;;;;;;;18.52;44.38;99661.81;5015001;28;20121;-59
2021/11/02 13:27:06;;;;;;;0.22;0.22;;;;;;;18.53;44.45;99668.91;5013926;28;20073;-59
2021/11/02 13:29:31;;;;;;;2.95;0.50;;;;;;;18.56;43.89;99663.09;5013671;28;20021;-59
2021/11/02 13:32:01;;;;;;;0.20;0.20;;;;;;;18.57;44.66;99667.44;5015582;28;20024;-60
2021/11/02 13:34:30;;;;;;;2.58;0.40;;;;;;;18.62;44.41;99674.97;5013364;28;20494;-59
2021/11/02 13:37:03;;;;;;;0.50;0.43;;;;;;;18.75;43.94;99673.09;5015368;28;20510;-59
2021/11/02 13:39:29;;;;;;;5.78;0.68;;;;;;;18.86;44.29;99675.16;5015973;28;20076;-60
2021/11/02 13:41:55;;;;;;;0.40;0.40;;;;;;;19.10;44.51;99671.75;5013894;28;20026;-59
2021/11/02 13:44:20;;;;;;;0.77;0.50;;;;;;;19.51;44.41;99667.91;5002462;28;20390;-59
2021/11/02 13:46:49;;;;;;;0.22;0.22;;;;;;;19.86;44.13;99677.34;5015502;28;20026;-60
2021/11/02 13:49:18;;;;;;;0.50;0.50;;;;;;;20.12;43.77;99666.34;5015678;28;20017;-60
2021/11/02 13:51:44;;;;;;;2.20;0.75;;;;;;;20.10;43.95;99676.56;5015300;28;20018;-59
2021/11/02 13:54:10;;;;;;;1.67;0.93;;;;;;;20.11;44.69;99675.53;5015651;28;20017;-60
2021/11/02 13:56:53;;;;;;;1.58;0.93;;;;;;;20.10;44.16;99673.84;5015412;28;20029;-59
2021/11/02 13:59:18;;;;;;;0.82;0.70;;;;;;;20.06;44.57;99683.53;5014819;28;20025;-59
2021/11/02 14:01:47;;;;;;;0.88;0.65;;;;;;;20.04;44.27;99674.75;5003946;28;20128;-60
2021/11/02 14:04:24;;;;;;;2.55;1.50;;;;;;;19.96;44.02;99682.34;5005272;28;20033;-59
2021/11/02 14:06:53;;;;;;;1.77;1.25;;;;;;;19.93;44.27;99680.88;5012257;28;20087;-59
2021/11/02 14:09:25;;;;;;;0.70;0.52;;;;;;;19.80;44.20;99661.91;5014677;28;20459;-59
2021/11/02 14:11:50;;;;;;;1.38;0.60;;;;;;;19.83;44.55;99682.38;5012888;28;20018;-59
2021/11/02 14:14:32;;;;;;;1.45;1.25;;;;;;;19.75;45.21;99681.59;5003375;28;20887;-59
2021/11/02 14:16:58;;;;;;;2.53;1.08;;;;;;;19.67;44.97;99678.28;5014377;28;20502;-59
2021/11/02 14:19:32;;;;;;;1.55;0.80;;;;;;;19.56;44.92;99681.69;5015333;28;20021;-59
2021/11/02 14:21:58;;;;;;;1.85;1.10;;;;;;;19.46;44.29;99692.16;5013880;28;20026;-59
2021/11/02 14:24:44;;;;;;;1.35;0.95;;;;;;;19.37;44.05;99688.00;5014823;28;20494;-64
2021/11/02 14:27:19;;;;;;;1.83;0.80;;;;;;;19.35;44.30;99696.34;5014379;28;20034;-59
2021/11/02 14:29:47;;;;;;;1.23;1.10;;;;;;;19.39;44.46;99696.78;5014290;28;20049;-59
2021/11/02 14:32:34;;;;;;;1.73;1.00;;;;;;;19.40;44.53;99701.19;5014522;28;20052;-60
2021/11/02 14:35:01;;;;;;;1.25;0.85;;;;;;;19.35;45.33;99701.75;5021418;28;20056;-59
2021/11/02 14:37:27;;;;;;;5.38;1.10;;;;;;;19.26;45.07;99696.78;5032883;28;20029;-59
2021/11/02 14:39:57;;;;;;;1.35;0.85;;;;;;;19.23;45.32;99702.66;5033152;28;20026;-59
2021/11/02 14:42:44;;;;;;;2.00;1.10;;;;;;;19.14;44.77;99710.19;5031592;28;20022;-59
2021/11/02 14:45:12;;;;;;;1.88;1.00;;;;;;;19.08;44.46;99711.03;5029962;28;20059;-59
2021/11/02 14:47:38;;;;;;;4.93;2.25;;;;;;;19.00;44.99;99708.53;5011958;28;20051;-59
2021/11/02 14:50:29;;;;;;;4.55;2.10;;;;;;;18.90;44.71;99708.94;5031042;28;20057;-60
2021/11/02 14:53:17;;;;;;;6.20;2.47;;;;;;;18.87;44.28;99714.00;5027678;28;20029;-59
2021/11/02 14:55:50;;;;;;;3.63;1.08;;;;;;;18.78;44.34;99709.81;5031108;28;20374;-59
2021/11/02 14:58:43;;;;;;;1.42;1.33;;;;;;;18.76;44.84;99718.13;5015068;28;20026;-59
2021/11/02 15:01:36;;;;;;;1.40;1.05;;;;;;;18.72;44.64;99721.50;5026099;28;20018;-60
2021/11/02 15:04:06;;;;;;;1.00;1.00;;;;;;;18.69;44.99;99721.91;5014486;28;20025;-59
2021/11/02 15:06:35;;;;;;;1.05;0.95;;;;;;;18.65;44.77;99720.66;5031076;28;20075;-59
2021/11/02 15:09:07;;;;;;;2.58;1.08;;;;;;;18.65;44.22;99728.81;5032083;28;20033;-63
2021/11/02 15:11:32;;;;;;;1.13;0.88;;;;;;;18.63;44.36;99723.56;5027015;28;20075;-59
2021/11/02 15:14:01;;;;;;;1.05;0.80;;;;;;;18.61;45.16;99720.25;5028420;28;20022;-59
2021/11/02 15:16:27;;;;;;;4.03;1.00;;;;;;;18.59;45.21;99725.06;5031144;28;20040;-59
2021/11/02 15:18:59;;;;;;;1.98;1.10;;;;;;;18.57;45.55;99721.69;5031967;28;20017;-59
2021/11/02 15:21:36;;;;;;;1.27;0.90;;;;;;;18.56;44.99;99725.47;5029409;28;20018;-59
2021/11/02 15:24:07;;;;;;;1.40;0.80;;;;;;;18.53;44.67;99728.59;5029749;28;20099;-59
2021/11/02 15:26:52;;;;;;;6.93;1.08;;;;;;;18.53;44.69;99723.16;5030511;28;20063;-59
2021/11/02 15:29:19;;;;;;;2.40;0.95;;;;;;;18.47;45.37;99719.38;5010420;28;20030;-59
2021/11/02 15:32:00;;;;;;;1.83;1.15;;;;;;;18.50;44.52;99723.56;5009518;28;20183;-60
2021/11/02 15:34:59;;;;;;;4.43;0.95;;;;;;;18.48;45.40;99722.97;5028639;28;20042;-59
2021/11/02 15:37:34;;;;;;;1.20;0.82;;;;;;;18.39;45.18;99722.28;5026150;28;20025;-60
2021/11/02 15:40:12;;;;;;;1.83;1.13;;;;;;;18.40;44.62;99728.53;5027939;28;20034;-59
2021/11/02 15:42:46;;;;;;;2.15;1.58;;;;;;;18.36;44.51;99720.00;5027328;28;20024;-59
2021/11/02 15:45:19;;;;;;;1.10;1.00;;;;;;;18.31;44.99;99727.06;5028513;28;20454;-60
2021/11/02 15:47:48;;;;;;;4.90;1.00;;;;;;;18.24;45.71;99723.50;5028694;28;20533;-60
2021/11/02 15:50:18;;;;;;;1.85;0.85;;;;;;;18.18;44.78;99735.16;5025063;28;20030;-59
2021/11/02 15:52:44;;;;;;;1.42;0.95;;;;;;;18.13;44.62;99732.22;5029548;28;20027;-59
2021/11/02 15:55:17;;;;;;;0.95;0.90;;;;;;;18.09;45.20;99730.97;5028447;28;20104;-59
2021/11/02 15:57:53;;;;;;;0.88;0.63;;;;;;;18.08;45.08;99734.72;5026223;28;20025;-59
2021/11/02 16:00:24;;;;;;;1.77;0.50;;;;;;;18.02;45.05;99737.22;5030387;28;20463;-59
2021/11/02 16:02:50;;;;;;;1.08;0.80;;;;;;;17.96;45.62;99735.31;5027616;28;20071;-59
2021/11/02 16:05:21;;;;;;;2.75;1.80;;;;;;;17.97;44.27;99738.88;5029644;28;20026;-59
2021/11/02 16:07:47;;;;;;;14.10;4.30;;;;;;;17.93;44.98;99741.13;5012182;28;20021;-59
2021/11/02 16:10:12;;;;;;;19.20;7.60;;;;;;;17.93;45.34;99738.44;5029490;28;20026;-60
2021/11/02 16:12:40;;;;;;;4.78;2.88;;;;;;;17.89;45.30;99736.34;5028411;28;20025;-59
2021/11/02 16:15:05;;;;;;;1.20;1.10;;;;;;;17.92;45.36;99746.78;5029058;28;20033;-60
2021/11/02 16:17:37;;;;;;;3.83;1.73;;;;;;;17.85;45.32;99740.47;5029954;28;20695;-59
2021/11/02 16:20:04;;;;;;;2.58;1.20;;;;;;;17.89;44.64;99753.44;5011020;28;20013;-60
2021/11/02 16:22:29;;;;;;;2.35;0.88;;;;;;;17.86;45.86;99742.16;5012215;28;20018;-59
2021/11/02 16:25:07;;;;;;;10.73;5.65;;;;;;;17.85;44.61;99746.75;5030159;28;20026;-59
2021/11/02 16:27:33;;;;;;;10.70;5.65;;;;;;;17.84;44.90;99749.63;5029697;28;20382;-59
2021/11/02 16:29:58;;;;;;;5.95;3.08;;;;;;;17.80;45.81;99743.81;5015373;28;20018;-59
2021/11/02 16:32:26;;;;;;;26.67;12.30;;;;;;;17.81;45.52;99747.34;5031511;28;20030;-59
2021/11/02 16:34:52;;;;;;;14.80;7.80;;;;;;;17.76;44.74;99745.22;5033058;28;20056;-60
2021/11/02 16:37:37;;;;;;;3.88;2.58;;;;;;;17.78;46.17;99751.28;5032681;28;20017;-59
2021/11/02 16:40:22;;;;;;;1.20;1.00;;;;;;;17.74;44.73;99758.16;5031059;28;20105;-59
2021/11/02 16:43:02;;;;;;;3.33;2.08;;;;;;;17.71;45.49;99755.00;5032903;28;20075;-60
2021/11/02 16:45:33;;;;;;;3.92;2.20;;;;;;;17.67;45.46;99751.03;5031434;28;20393;-60